sensor_id;sensor_type;location;lat;lon;timestamp;temperature;humidity
51739;DHT22;37815;52.692;6.226;2022-09-13T00:00:48;20.70;91.70
51739;DHT22;37815;52.692;6.226;2022-09-13T00:05:49;20.70;91.70
51739;DHT22;37815;52.692;6.226;2022-09-13T00:10:50;20.70;91.80
51739;DHT22;37815;52.692;6.226;2022-09-13T00:15:50;20.60;91.90
51739;DHT22;37815;52.692;6.226;2022-09-13T00:20:51;20.60;91.90
51739;DHT22;37815;52.692;6.226;2022-09-13T00:25:52;20.60;92.00
51739;DHT22;37815;52.692;6.226;2022-09-13T00:30:52;20.60;92.10
51739;DHT22;37815;52.692;6.226;2022-09-13T00:35:53;20.60;92.20
51739;DHT22;37815;52.692;6.226;2022-09-13T00:40:54;20.60;92.20
51739;DHT22;37815;52.692;6.226;2022-09-13T00:45:55;20.60;92.30
51739;DHT22;37815;52.692;6.226;2022-09-13T00:50:55;20.50;92.40
51739;DHT22;37815;52.692;6.226;2022-09-13T00:56:02;20.50;92.40
51739;DHT22;37815;52.692;6.226;2022-09-13T01:01:08;20.50;92.50
51739;DHT22;37815;52.692;6.226;2022-09-13T01:06:17;20.50;92.50
51739;DHT22;37815;52.692;6.226;2022-09-13T01:11:27;20.50;92.70
51739;DHT22;37815;52.692;6.226;2022-09-13T01:16:29;20.50;92.70
51739;DHT22;37815;52.692;6.226;2022-09-13T01:27:15;20.50;92.90
51739;DHT22;37815;52.692;6.226;2022-09-13T01:37:52;20.40;92.90
51739;DHT22;37815;52.692;6.226;2022-09-13T01:48:29;20.40;93.20
51739;DHT22;37815;52.692;6.226;2022-09-13T01:53:53;20.40;93.10
51739;DHT22;37815;52.692;6.226;2022-09-13T01:59:00;20.40;93.20
51739;DHT22;37815;52.692;6.226;2022-09-13T02:04:17;20.40;93.20
51739;DHT22;37815;52.692;6.226;2022-09-13T02:09:22;20.40;93.30
51739;DHT22;37815;52.692;6.226;2022-09-13T02:14:28;20.30;93.20
51739;DHT22;37815;52.692;6.226;2022-09-13T02:19:56;20.30;93.30
51739;DHT22;37815;52.692;6.226;2022-09-13T02:25:04;20.30;93.40
51739;DHT22;37815;52.692;6.226;2022-09-13T02:30:08;20.30;93.40
51739;DHT22;37815;52.692;6.226;2022-09-13T02:35:12;20.30;93.40
51739;DHT22;37815;52.692;6.226;2022-09-13T02:40:17;20.30;93.50
51739;DHT22;37815;52.692;6.226;2022-09-13T02:45:38;20.30;93.50
51739;DHT22;37815;52.692;6.226;2022-09-13T02:51:10;20.30;93.60
51739;DHT22;37815;52.692;6.226;2022-09-13T03:01:21;20.30;93.70
51739;DHT22;37815;52.692;6.226;2022-09-13T03:06:27;20.20;93.60
51739;DHT22;37815;52.692;6.226;2022-09-13T03:11:58;20.20;93.70
51739;DHT22;37815;52.692;6.226;2022-09-13T03:43:49;20.20;93.80
51739;DHT22;37815;52.692;6.226;2022-09-13T03:48:52;20.20;93.80
51739;DHT22;37815;52.692;6.226;2022-09-13T03:53:58;20.20;93.80
51739;DHT22;37815;52.692;6.226;2022-09-13T03:59:00;20.20;93.90
51739;DHT22;37815;52.692;6.226;2022-09-13T04:04:01;20.20;93.90
51739;DHT22;37815;52.692;6.226;2022-09-13T04:09:01;20.20;93.90
51739;DHT22;37815;52.692;6.226;2022-09-13T04:14:02;20.20;94.00
51739;DHT22;37815;52.692;6.226;2022-09-13T04:19:03;20.10;94.00
51739;DHT22;37815;52.692;6.226;2022-09-13T04:24:04;20.10;94.00
51739;DHT22;37815;52.692;6.226;2022-09-13T04:29:04;20.10;94.00
51739;DHT22;37815;52.692;6.226;2022-09-13T04:34:05;20.10;94.10
51739;DHT22;37815;52.692;6.226;2022-09-13T04:39:07;20.10;94.10
51739;DHT22;37815;52.692;6.226;2022-09-13T04:44:08;20.10;94.10
51739;DHT22;37815;52.692;6.226;2022-09-13T04:49:09;20.10;94.20
51739;DHT22;37815;52.692;6.226;2022-09-13T04:54:11;20.10;94.20
51739;DHT22;37815;52.692;6.226;2022-09-13T04:59:12;20.10;94.20
51739;DHT22;37815;52.692;6.226;2022-09-13T05:04:13;20.10;94.20
51739;DHT22;37815;52.692;6.226;2022-09-13T05:09:14;20.10;94.30
51739;DHT22;37815;52.692;6.226;2022-09-13T05:14:15;20.10;94.30
51739;DHT22;37815;52.692;6.226;2022-09-13T05:19:16;20.00;94.30
51739;DHT22;37815;52.692;6.226;2022-09-13T05:24:17;20.00;94.30
51739;DHT22;37815;52.692;6.226;2022-09-13T05:29:18;20.00;94.30
51739;DHT22;37815;52.692;6.226;2022-09-13T05:34:18;20.00;94.30
51739;DHT22;37815;52.692;6.226;2022-09-13T05:39:20;20.00;94.40
51739;DHT22;37815;52.692;6.226;2022-09-13T05:44:21;20.00;94.40
51739;DHT22;37815;52.692;6.226;2022-09-13T05:49:22;20.00;94.40
51739;DHT22;37815;52.692;6.226;2022-09-13T05:54:23;20.00;94.40
51739;DHT22;37815;52.692;6.226;2022-09-13T05:59:23;20.00;94.40
51739;DHT22;37815;52.692;6.226;2022-09-13T06:04:24;20.00;94.40
51739;DHT22;37815;52.692;6.226;2022-09-13T06:09:25;20.00;94.40
51739;DHT22;37815;52.692;6.226;2022-09-13T06:14:26;20.00;94.70
51739;DHT22;37815;52.692;6.226;2022-09-13T06:19:26;20.00;94.70
51739;DHT22;37815;52.692;6.226;2022-09-13T06:24:28;20.00;94.80
51739;DHT22;37815;52.692;6.226;2022-09-13T06:29:28;20.00;94.80
51739;DHT22;37815;52.692;6.226;2022-09-13T06:34:29;20.00;94.80
51739;DHT22;37815;52.692;6.226;2022-09-13T06:39:30;20.00;94.80
51739;DHT22;37815;52.692;6.226;2022-09-13T06:44:31;20.00;94.90
51739;DHT22;37815;52.692;6.226;2022-09-13T06:49:32;20.00;94.90
51739;DHT22;37815;52.692;6.226;2022-09-13T06:54:33;20.00;94.90
51739;DHT22;37815;52.692;6.226;2022-09-13T06:59:34;20.00;94.90
51739;DHT22;37815;52.692;6.226;2022-09-13T07:04:34;20.00;94.90
51739;DHT22;37815;52.692;6.226;2022-09-13T07:09:35;20.00;94.80
51739;DHT22;37815;52.692;6.226;2022-09-13T07:14:35;20.00;94.80
51739;DHT22;37815;52.692;6.226;2022-09-13T07:19:37;20.00;94.80
51739;DHT22;37815;52.692;6.226;2022-09-13T07:24:37;20.10;94.80
51739;DHT22;37815;52.692;6.226;2022-09-13T07:29:38;20.10;94.80
51739;DHT22;37815;52.692;6.226;2022-09-13T07:34:39;20.10;94.70
51739;DHT22;37815;52.692;6.226;2022-09-13T07:39:40;20.10;94.70
51739;DHT22;37815;52.692;6.226;2022-09-13T07:44:41;20.10;94.70
51739;DHT22;37815;52.692;6.226;2022-09-13T07:49:41;20.10;94.70
51739;DHT22;37815;52.692;6.226;2022-09-13T07:54:42;20.10;94.60
51739;DHT22;37815;52.692;6.226;2022-09-13T07:59:43;20.10;94.60
51739;DHT22;37815;52.692;6.226;2022-09-13T08:04:43;20.20;94.70
51739;DHT22;37815;52.692;6.226;2022-09-13T08:09:44;20.20;94.60
51739;DHT22;37815;52.692;6.226;2022-09-13T08:14:45;20.20;94.60
51739;DHT22;37815;52.692;6.226;2022-09-13T08:19:45;20.20;94.60
51739;DHT22;37815;52.692;6.226;2022-09-13T08:24:46;20.30;94.60
51739;DHT22;37815;52.692;6.226;2022-09-13T08:29:47;20.30;94.50
51739;DHT22;37815;52.692;6.226;2022-09-13T08:34:47;20.30;94.50
51739;DHT22;37815;52.692;6.226;2022-09-13T08:39:48;20.40;94.40
51739;DHT22;37815;52.692;6.226;2022-09-13T08:44:52;20.40;94.40
51739;DHT22;37815;52.692;6.226;2022-09-13T08:55:07;20.40;94.30
51739;DHT22;37815;52.692;6.226;2022-09-13T09:05:19;20.40;94.20
51739;DHT22;37815;52.692;6.226;2022-09-13T09:10:34;20.60;94.20
51739;DHT22;37815;52.692;6.226;2022-09-13T09:15:46;20.60;94.20
51739;DHT22;37815;52.692;6.226;2022-09-13T09:20:56;20.60;94.20
51739;DHT22;37815;52.692;6.226;2022-09-13T09:31:44;20.60;94.20
51739;DHT22;37815;52.692;6.226;2022-09-13T09:37:06;20.60;94.10
51739;DHT22;37815;52.692;6.226;2022-09-13T09:42:20;20.60;94.10
51739;DHT22;37815;52.692;6.226;2022-09-13T09:47:23;20.70;94.00
51739;DHT22;37815;52.692;6.226;2022-09-13T09:52:40;20.80;93.90
51739;DHT22;37815;52.692;6.226;2022-09-13T10:02:59;20.90;93.80
51739;DHT22;37815;52.692;6.226;2022-09-13T10:08:04;20.90;93.70
51739;DHT22;37815;52.692;6.226;2022-09-13T10:13:12;20.90;93.60
51739;DHT22;37815;52.692;6.226;2022-09-13T10:18:15;21.00;93.60
51739;DHT22;37815;52.692;6.226;2022-09-13T10:23:18;21.00;93.50
51739;DHT22;37815;52.692;6.226;2022-09-13T10:28:19;21.10;93.40
51739;DHT22;37815;52.692;6.226;2022-09-13T10:33:43;21.20;93.40
51739;DHT22;37815;52.692;6.226;2022-09-13T10:38:59;21.20;93.30
51739;DHT22;37815;52.692;6.226;2022-09-13T10:44:02;21.20;93.20
51739;DHT22;37815;52.692;6.226;2022-09-13T10:49:03;21.30;93.20
51739;DHT22;37815;52.692;6.226;2022-09-13T10:54:18;21.30;93.20
51739;DHT22;37815;52.692;6.226;2022-09-13T10:59:25;21.30;93.10
51739;DHT22;37815;52.692;6.226;2022-09-13T11:10:12;21.40;93.10
51739;DHT22;37815;52.692;6.226;2022-09-13T11:15:35;21.40;93.10
51739;DHT22;37815;52.692;6.226;2022-09-13T11:26:19;21.50;93.00
51739;DHT22;37815;52.692;6.226;2022-09-13T11:42:58;21.60;92.80
51739;DHT22;37815;52.692;6.226;2022-09-13T11:53:38;21.60;92.80
51739;DHT22;37815;52.692;6.226;2022-09-13T11:58:53;21.70;92.80
51739;DHT22;37815;52.692;6.226;2022-09-13T12:04:03;21.70;92.80
51739;DHT22;37815;52.692;6.226;2022-09-13T12:09:24;21.70;92.80
51739;DHT22;37815;52.692;6.226;2022-09-13T12:14:29;21.80;92.70
51739;DHT22;37815;52.692;6.226;2022-09-13T12:19:41;21.80;92.70
51739;DHT22;37815;52.692;6.226;2022-09-13T12:24:51;21.90;92.60
51739;DHT22;37815;52.692;6.226;2022-09-13T12:30:05;21.90;92.60
51739;DHT22;37815;52.692;6.226;2022-09-13T12:35:16;22.00;92.60
51739;DHT22;37815;52.692;6.226;2022-09-13T12:40:47;22.00;92.50
51739;DHT22;37815;52.692;6.226;2022-09-13T12:46:47;22.00;92.50
51739;DHT22;37815;52.692;6.226;2022-09-13T12:51:47;22.00;92.50
51739;DHT22;37815;52.692;6.226;2022-09-13T13:02:26;22.00;92.50
51739;DHT22;37815;52.692;6.226;2022-09-13T13:07:29;22.00;92.50
51739;DHT22;37815;52.692;6.226;2022-09-13T13:12:38;22.00;92.60
51739;DHT22;37815;52.692;6.226;2022-09-13T13:17:46;22.10;92.60
51739;DHT22;37815;52.692;6.226;2022-09-13T13:22:49;22.10;92.50
51739;DHT22;37815;52.692;6.226;2022-09-13T13:27:50;22.10;92.50
51739;DHT22;37815;52.692;6.226;2022-09-13T13:33:20;22.20;92.50
51739;DHT22;37815;52.692;6.226;2022-09-13T13:38:39;22.30;92.50
51739;DHT22;37815;52.692;6.226;2022-09-13T13:43:40;22.30;92.40
51739;DHT22;37815;52.692;6.226;2022-09-13T13:48:41;22.40;92.40
51739;DHT22;37815;52.692;6.226;2022-09-13T13:53:50;22.50;92.20
51739;DHT22;37815;52.692;6.226;2022-09-13T13:59:03;22.60;92.20
51739;DHT22;37815;52.692;6.226;2022-09-13T14:04:43;22.60;92.10
51739;DHT22;37815;52.692;6.226;2022-09-13T14:09:57;22.60;92.10
51739;DHT22;37815;52.692;6.226;2022-09-13T14:15:04;22.70;91.90
51739;DHT22;37815;52.692;6.226;2022-09-13T14:20:17;22.70;91.50
51739;DHT22;37815;52.692;6.226;2022-09-13T14:30:44;22.60;91.60
51739;DHT22;37815;52.692;6.226;2022-09-13T14:35:44;22.60;91.70
51739;DHT22;37815;52.692;6.226;2022-09-13T14:40:49;22.50;91.80
51739;DHT22;37815;52.692;6.226;2022-09-13T14:46:16;23.30;91.90
51739;DHT22;37815;52.692;6.226;2022-09-13T14:51:25;22.70;91.70
51739;DHT22;37815;52.692;6.226;2022-09-13T14:56:50;22.70;91.60
51739;DHT22;37815;52.692;6.226;2022-09-13T15:01:51;22.70;91.30
51739;DHT22;37815;52.692;6.226;2022-09-13T15:07:07;22.60;91.70
51739;DHT22;37815;52.692;6.226;2022-09-13T15:12:25;22.60;91.50
51739;DHT22;37815;52.692;6.226;2022-09-13T15:17:26;22.70;91.40
51739;DHT22;37815;52.692;6.226;2022-09-13T15:22:32;22.70;91.50
51739;DHT22;37815;52.692;6.226;2022-09-13T15:27:44;22.70;91.50
51739;DHT22;37815;52.692;6.226;2022-09-13T15:32:45;22.60;91.40
51739;DHT22;37815;52.692;6.226;2022-09-13T15:37:45;22.60;91.50
51739;DHT22;37815;52.692;6.226;2022-09-13T15:42:48;22.60;91.60
51739;DHT22;37815;52.692;6.226;2022-09-13T15:47:51;22.60;91.60
51739;DHT22;37815;52.692;6.226;2022-09-13T15:52:53;22.50;91.50
51739;DHT22;37815;52.692;6.226;2022-09-13T15:57:58;22.50;91.60
51739;DHT22;37815;52.692;6.226;2022-09-13T16:02:58;22.50;91.50
51739;DHT22;37815;52.692;6.226;2022-09-13T16:07:59;22.40;91.60
51739;DHT22;37815;52.692;6.226;2022-09-13T16:13:00;22.40;91.60
51739;DHT22;37815;52.692;6.226;2022-09-13T16:18:01;22.30;91.60
51739;DHT22;37815;52.692;6.226;2022-09-13T16:23:01;22.30;91.60
51739;DHT22;37815;52.692;6.226;2022-09-13T16:28:03;22.30;91.60
51739;DHT22;37815;52.692;6.226;2022-09-13T16:33:04;22.10;90.90
51739;DHT22;37815;52.692;6.226;2022-09-13T16:38:05;21.60;90.50
51739;DHT22;37815;52.692;6.226;2022-09-13T16:43:06;21.30;90.60
51739;DHT22;37815;52.692;6.226;2022-09-13T16:48:08;21.00;90.60
51739;DHT22;37815;52.692;6.226;2022-09-13T16:53:08;20.80;90.50
51739;DHT22;37815;52.692;6.226;2022-09-13T16:58:09;20.60;90.60
51739;DHT22;37815;52.692;6.226;2022-09-13T17:03:10;20.50;90.40
51739;DHT22;37815;52.692;6.226;2022-09-13T17:08:11;20.40;90.40
51739;DHT22;37815;52.692;6.226;2022-09-13T17:13:11;20.20;90.40
51739;DHT22;37815;52.692;6.226;2022-09-13T17:18:12;20.10;90.60
51739;DHT22;37815;52.692;6.226;2022-09-13T17:23:13;20.10;90.60
51739;DHT22;37815;52.692;6.226;2022-09-13T17:28:15;19.90;90.60
51739;DHT22;37815;52.692;6.226;2022-09-13T17:33:16;19.70;90.60
51739;DHT22;37815;52.692;6.226;2022-09-13T17:38:17;19.70;90.60
51739;DHT22;37815;52.692;6.226;2022-09-13T17:43:18;19.70;90.70
51739;DHT22;37815;52.692;6.226;2022-09-13T17:48:18;19.60;90.60
51739;DHT22;37815;52.692;6.226;2022-09-13T17:53:19;19.50;90.60
51739;DHT22;37815;52.692;6.226;2022-09-13T17:58:23;19.40;90.60
51739;DHT22;37815;52.692;6.226;2022-09-13T18:03:26;19.40;90.70
51739;DHT22;37815;52.692;6.226;2022-09-13T18:08:29;19.30;90.80
51739;DHT22;37815;52.692;6.226;2022-09-13T18:13:30;19.20;90.90
51739;DHT22;37815;52.692;6.226;2022-09-13T18:18:33;19.20;91.00
51739;DHT22;37815;52.692;6.226;2022-09-13T18:23:35;18.90;90.90
51739;DHT22;37815;52.692;6.226;2022-09-13T18:28:36;19.10;91.10
51739;DHT22;37815;52.692;6.226;2022-09-13T18:33:37;19.20;91.00
51739;DHT22;37815;52.692;6.226;2022-09-13T18:38:40;19.40;90.90
51739;DHT22;37815;52.692;6.226;2022-09-13T18:43:43;19.50;90.70
51739;DHT22;37815;52.692;6.226;2022-09-13T18:48:46;19.70;90.60
51739;DHT22;37815;52.692;6.226;2022-09-13T18:53:47;19.80;90.60
51739;DHT22;37815;52.692;6.226;2022-09-13T18:58:49;19.90;90.60
51739;DHT22;37815;52.692;6.226;2022-09-13T19:03:57;19.90;90.50
51739;DHT22;37815;52.692;6.226;2022-09-13T19:08:59;20.00;90.50
51739;DHT22;37815;52.692;6.226;2022-09-13T19:14:01;20.00;90.50
51739;DHT22;37815;52.692;6.226;2022-09-13T19:19:02;20.00;90.50
51739;DHT22;37815;52.692;6.226;2022-09-13T19:24:03;19.90;90.60
51739;DHT22;37815;52.692;6.226;2022-09-13T19:29:07;19.90;90.60
51739;DHT22;37815;52.692;6.226;2022-09-13T19:34:09;20.00;90.50
51739;DHT22;37815;52.692;6.226;2022-09-13T19:39:10;20.00;90.60
51739;DHT22;37815;52.692;6.226;2022-09-13T19:44:11;20.00;90.60
51739;DHT22;37815;52.692;6.226;2022-09-13T19:49:15;20.00;90.60
51739;DHT22;37815;52.692;6.226;2022-09-13T19:54:16;20.00;90.60
51739;DHT22;37815;52.692;6.226;2022-09-13T19:59:18;20.00;90.60
51739;DHT22;37815;52.692;6.226;2022-09-13T20:04:20;20.00;90.60
51739;DHT22;37815;52.692;6.226;2022-09-13T20:09:21;20.00;90.60
51739;DHT22;37815;52.692;6.226;2022-09-13T20:14:22;20.00;90.60
51739;DHT22;37815;52.692;6.226;2022-09-13T20:19:22;20.00;90.60
51739;DHT22;37815;52.692;6.226;2022-09-13T20:24:23;20.00;90.90
51739;DHT22;37815;52.692;6.226;2022-09-13T20:29:25;19.90;90.60
51739;DHT22;37815;52.692;6.226;2022-09-13T20:34:26;19.90;90.60
51739;DHT22;37815;52.692;6.226;2022-09-13T20:39:27;19.90;90.70
51739;DHT22;37815;52.692;6.226;2022-09-13T20:44:27;19.90;90.70
51739;DHT22;37815;52.692;6.226;2022-09-13T20:49:28;19.90;90.60
51739;DHT22;37815;52.692;6.226;2022-09-13T20:54:29;19.80;90.60
51739;DHT22;37815;52.692;6.226;2022-09-13T20:59:30;19.80;90.60
51739;DHT22;37815;52.692;6.226;2022-09-13T21:04:31;19.80;90.60
51739;DHT22;37815;52.692;6.226;2022-09-13T21:09:32;19.80;90.60
51739;DHT22;37815;52.692;6.226;2022-09-13T21:14:32;19.80;90.60
51739;DHT22;37815;52.692;6.226;2022-09-13T21:19:34;19.80;90.60
51739;DHT22;37815;52.692;6.226;2022-09-13T21:24:34;19.70;90.60
51739;DHT22;37815;52.692;6.226;2022-09-13T21:29:35;19.70;90.60
51739;DHT22;37815;52.692;6.226;2022-09-13T21:34:36;19.70;90.60
51739;DHT22;37815;52.692;6.226;2022-09-13T21:39:38;19.70;90.60
51739;DHT22;37815;52.692;6.226;2022-09-13T21:44:39;19.60;90.60
51739;DHT22;37815;52.692;6.226;2022-09-13T21:49:39;19.60;90.60
51739;DHT22;37815;52.692;6.226;2022-09-13T21:54:42;19.60;90.60
51739;DHT22;37815;52.692;6.226;2022-09-13T21:59:42;19.60;90.60
51739;DHT22;37815;52.692;6.226;2022-09-13T22:04:43;19.60;90.90
51739;DHT22;37815;52.692;6.226;2022-09-13T22:09:44;19.50;90.60
51739;DHT22;37815;52.692;6.226;2022-09-13T22:14:45;19.50;90.60
51739;DHT22;37815;52.692;6.226;2022-09-13T22:19:47;19.50;90.60
51739;DHT22;37815;52.692;6.226;2022-09-13T22:24:48;19.50;90.60
51739;DHT22;37815;52.692;6.226;2022-09-13T22:29:48;19.50;90.60
51739;DHT22;37815;52.692;6.226;2022-09-13T22:34:49;19.40;90.60
51739;DHT22;37815;52.692;6.226;2022-09-13T22:39:50;19.40;90.60
51739;DHT22;37815;52.692;6.226;2022-09-13T22:44:50;19.40;90.90
51739;DHT22;37815;52.692;6.226;2022-09-13T22:49:51;19.40;90.60
51739;DHT22;37815;52.692;6.226;2022-09-13T22:54:52;19.40;90.70
51739;DHT22;37815;52.692;6.226;2022-09-13T22:59:53;19.40;90.70
51739;DHT22;37815;52.692;6.226;2022-09-13T23:04:53;19.30;90.70
51739;DHT22;37815;52.692;6.226;2022-09-13T23:09:54;19.30;90.60
51739;DHT22;37815;52.692;6.226;2022-09-13T23:14:55;19.30;90.70
51739;DHT22;37815;52.692;6.226;2022-09-13T23:19:56;19.30;90.60
51739;DHT22;37815;52.692;6.226;2022-09-13T23:24:56;19.30;90.70
51739;DHT22;37815;52.692;6.226;2022-09-13T23:29:57;19.20;90.60
51739;DHT22;37815;52.692;6.226;2022-09-13T23:34:58;19.20;90.70
51739;DHT22;37815;52.692;6.226;2022-09-13T23:39:58;19.20;90.70
51739;DHT22;37815;52.692;6.226;2022-09-13T23:45:00;19.10;90.60
51739;DHT22;37815;52.692;6.226;2022-09-13T23:50:01;19.10;90.60
51739;DHT22;37815;52.692;6.226;2022-09-13T23:55:02;19.10;90.60
